Time;durP1;ratioP1;P1;durP2;ratioP2;P2;SDS_P1;SDS_P2;PMS_P1;PMS_P2;Temp;Humidity;BMP_temperature;BMP_pressure;BME280_temperature;BME280_humidity;BME280_pressure;Samples;Min_cycle;Max_cycle;Signal;HPM_P1;HPM_P2
2021/08/13 00:00:00;;;;;;;3.58;3.28;;;;;24.00;101815.00;;;;5049050;28;20207;-77
2021/08/13 00:03:14;;;;;;;3.35;2.65;;;;;23.90;101812.00;;;;5068453;28;20614;-76
2021/08/13 00:05:43;;;;;;;3.47;2.90;;;;;23.90;101819.00;;;;5069144;28;20719;-77
2021/08/13 00:08:10;;;;;;;3.78;3.17;;;;;23.90;101814.00;;;;5068160;28;20202;-77
2021/08/13 00:10:37;;;;;;;2.97;2.70;;;;;23.90;101814.00;;;;5055597;28;20195;-76
2021/08/13 00:13:05;;;;;;;4.28;2.65;;;;;23.90;101816.00;;;;5048799;28;20204;-76
2021/08/13 00:15:32;;;;;;;3.25;2.95;;;;;23.80;101813.00;;;;5049037;28;20207;-76
2021/08/13 00:18:00;;;;;;;4.05;3.13;;;;;23.80;101817.00;;;;5048548;28;20238;-76
2021/08/13 00:20:27;;;;;;;4.50;3.00;;;;;23.80;101819.00;;;;5049295;28;20219;-77
2021/08/13 00:22:55;;;;;;;4.68;3.10;;;;;23.80;101824.00;;;;5048830;28;20202;-76
2021/08/13 00:25:23;;;;;;;3.58;2.97;;;;;23.70;101822.00;;;;5049399;28;20231;-76
2021/08/13 00:27:50;;;;;;;4.75;3.33;;;;;23.70;101822.00;;;;5048525;28;20199;-77
2021/08/13 00:30:17;;;;;;;3.10;2.78;;;;;23.70;101816.00;;;;5048429;28;20265;-76
2021/08/13 00:32:44;;;;;;;3.95;2.92;;;;;23.70;101825.00;;;;5048831;28;20212;-77
2021/08/13 00:35:12;;;;;;;3.83;2.92;;;;;23.60;101829.00;;;;5048453;28;20246;-76
2021/08/13 00:37:39;;;;;;;4.50;2.63;;;;;23.60;101817.00;;;;5048833;28;20211;-76
2021/08/13 00:40:09;;;;;;;4.40;3.22;;;;;23.60;101820.00;;;;5052004;28;20204;-76
2021/08/13 00:42:36;;;;;;;3.13;2.83;;;;;23.60;101824.00;;;;5052211;28;20204;-76
2021/08/13 00:45:05;;;;;;;3.83;3.00;;;;;23.60;101830.00;;;;5052477;28;20253;-76
2021/08/13 00:47:32;;;;;;;2.88;2.35;;;;;23.50;101825.00;;;;5052477;28;20203;-77
2021/08/13 00:50:00;;;;;;;4.03;3.28;;;;;23.50;101833.00;;;;5052162;28;20199;-77
2021/08/13 00:52:27;;;;;;;4.05;3.10;;;;;23.50;101832.00;;;;5052992;28;20607;-76
2021/08/13 00:54:55;;;;;;;3.17;2.88;;;;;23.40;101828.00;;;;5052561;28;20199;-76
2021/08/13 00:57:24;;;;;;;3.60;3.10;;;;;23.40;101837.00;;;;5050825;28;20204;-76
2021/08/13 00:59:52;;;;;;;5.50;2.92;;;;;23.40;101841.00;;;;5052526;28;20204;-77
2021/08/13 01:02:19;;;;;;;3.13;2.72;;;;;23.40;101847.00;;;;5052311;28;20196;-76
2021/08/13 01:04:46;;;;;;;3.75;3.15;;;;;23.40;101836.00;;;;5052384;28;20227;-76
2021/08/13 01:07:14;;;;;;;3.88;3.00;;;;;23.30;101841.00;;;;5051586;28;20196;-76
2021/08/13 01:09:42;;;;;;;5.18;2.83;;;;;23.30;101844.00;;;;5052926;28;20200;-76
2021/08/13 01:12:18;;;;;;;3.90;2.88;;;;;23.30;101847.00;;;;5052247;28;20580;-76
2021/08/13 01:15:01;;;;;;;3.58;3.00;;;;;23.20;101846.00;;;;5052488;28;20188;-76
2021/08/13 01:17:34;;;;;;;3.10;2.65;;;;;23.20;101845.00;;;;5052551;28;20200;-76
2021/08/13 01:20:12;;;;;;;3.40;3.10;;;;;23.20;101849.00;;;;5051493;28;20666;-76
2021/08/13 01:22:48;;;;;;;3.55;3.25;;;;;23.20;101844.00;;;;5052166;28;20207;-77
2021/08/13 01:25:19;;;;;;;3.47;3.03;;;;;23.20;101850.00;;;;5053021;28;20230;-76
2021/08/13 01:27:49;;;;;;;3.90;3.50;;;;;23.20;101848.00;;;;5052113;28;20203;-77
2021/08/13 01:30:20;;;;;;;5.60;2.90;;;;;23.10;101845.00;;;;5052001;28;20196;-76
2021/08/13 01:32:51;;;;;;;3.28;2.97;;;;;23.10;101848.00;;;;5051921;28;20210;-76
2021/08/13 01:35:23;;;;;;;4.22;3.05;;;;;23.10;101847.00;;;;5050978;28;20705;-77
2021/08/13 01:37:53;;;;;;;3.47;3.17;;;;;23.10;101854.00;;;;5051328;28;20577;-76
2021/08/13 01:40:22;;;;;;;3.55;2.88;;;;;23.00;101849.00;;;;5051529;28;20199;-76
2021/08/13 01:42:50;;;;;;;3.10;2.70;;;;;23.00;101853.00;;;;5052060;28;20207;-77
2021/08/13 01:45:21;;;;;;;3.95;3.05;;;;;23.00;101853.00;;;;5050937;28;20231;-76
2021/08/13 01:47:52;;;;;;;4.15;3.00;;;;;22.90;101847.00;;;;5051139;28;20210;-76
2021/08/13 01:50:19;;;;;;;3.58;3.28;;;;;23.00;101840.00;;;;5049624;28;20257;-77
2021/08/13 01:52:48;;;;;;;4.00;3.00;;;;;22.90;101850.00;;;;5051338;28;20211;-76
2021/08/13 01:55:16;;;;;;;5.40;3.22;;;;;22.90;101845.00;;;;5051497;28;20191;-77
2021/08/13 01:57:44;;;;;;;3.88;3.45;;;;;22.90;101844.00;;;;5050528;28;20561;-76
2021/08/13 02:00:15;;;;;;;4.57;3.22;;;;;22.90;101846.00;;;;5051536;28;20265;-77
2021/08/13 02:02:43;;;;;;;3.20;2.85;;;;;22.80;101856.00;;;;5051050;28;20658;-77
2021/08/13 02:05:13;;;;;;;3.28;2.97;;;;;22.80;101848.00;;;;5050187;28;20257;-76
2021/08/13 02:07:42;;;;;;;4.03;3.17;;;;;22.80;101852.00;;;;5051409;28;20195;-77
2021/08/13 02:10:12;;;;;;;3.35;2.83;;;;;22.80;101848.00;;;;5050799;28;20989;-77
2021/08/13 02:12:39;;;;;;;4.97;3.00;;;;;22.80;101844.00;;;;5051290;28;20200;-76
2021/08/13 02:15:09;;;;;;;4.45;3.25;;;;;22.80;101844.00;;;;5050403;28;20665;-77
2021/08/13 02:17:42;;;;;;;5.10;3.50;;;;;22.70;101853.00;;;;5064189;28;20214;-76
2021/08/13 02:20:14;;;;;;;3.65;3.03;;;;;22.70;101854.00;;;;5071151;28;20210;-76
2021/08/13 02:22:41;;;;;;;6.32;3.55;;;;;22.70;101853.00;;;;5070231;28;20210;-77
2021/08/13 02:25:10;;;;;;;5.15;3.22;;;;;22.70;101855.00;;;;5070654;28;20226;-76
2021/08/13 02:27:37;;;;;;;3.53;3.20;;;;;22.70;101858.00;;;;5071051;28;20206;-77
2021/08/13 02:30:06;;;;;;;3.60;3.13;;;;;22.70;101857.00;;;;5070553;28;20203;-76
2021/08/13 02:32:34;;;;;;;3.95;3.38;;;;;22.60;101852.00;;;;5069858;28;20194;-77
2021/08/13 02:35:03;;;;;;;4.88;3.67;;;;;22.60;101856.00;;;;5069473;28;20230;-76
2021/08/13 02:37:39;;;;;;;4.05;3.33;;;;;22.60;101864.00;;;;5070349;28;20214;-77
2021/08/13 02:40:09;;;;;;;3.70;2.85;;;;;22.60;101859.00;;;;5070130;28;20692;-76
2021/08/13 02:42:39;;;;;;;5.18;3.70;;;;;22.60;101858.00;;;;5068498;28;20696;-77
2021/08/13 02:45:09;;;;;;;4.28;3.17;;;;;22.60;101859.00;;;;5058410;28;20218;-76
2021/08/13 02:47:36;;;;;;;3.67;3.20;;;;;22.50;101855.00;;;;5070442;28;20676;-76
2021/08/13 02:50:07;;;;;;;4.32;3.55;;;;;22.50;101841.00;;;;5069469;28;20209;-76
2021/08/13 02:52:43;;;;;;;4.63;3.47;;;;;22.50;101844.00;;;;5050341;28;20199;-76
2021/08/13 02:55:15;;;;;;;4.55;3.60;;;;;22.50;101841.00;;;;5049781;28;20688;-77
2021/08/13 02:57:44;;;;;;;4.10;3.40;;;;;22.50;101844.00;;;;5049263;28;20195;-77
2021/08/13 03:00:13;;;;;;;3.85;3.22;;;;;22.50;101835.00;;;;5049484;28;20205;-76
2021/08/13 03:02:41;;;;;;;4.15;3.70;;;;;22.40;101836.00;;;;5049822;28;20745;-76
2021/08/13 03:05:11;;;;;;;4.40;3.65;;;;;22.40;101823.00;;;;5049709;28;20237;-77
2021/08/13 03:07:41;;;;;;;5.85;3.38;;;;;22.40;101829.00;;;;5050565;28;20203;-76
2021/08/13 03:10:10;;;;;;;5.35;3.53;;;;;22.40;101833.00;;;;5049418;28;20199;-76
2021/08/13 03:12:39;;;;;;;4.05;3.28;;;;;22.40;101822.00;;;;5050032;28;20203;-77
2021/08/13 03:15:07;;;;;;;4.70;3.33;;;;;22.30;101825.00;;;;5049235;28;20211;-77
2021/08/13 03:17:35;;;;;;;3.90;3.17;;;;;22.30;101824.00;;;;5049740;28;20204;-76
2021/08/13 03:20:03;;;;;;;5.38;3.53;;;;;22.30;101832.00;;;;5049719;28;20211;-76
2021/08/13 03:22:31;;;;;;;3.33;2.75;;;;;22.30;101822.00;;;;5049054;28;20211;-76
2021/08/13 03:25:01;;;;;;;5.03;3.40;;;;;22.30;101826.00;;;;5057027;28;20229;-77
2021/08/13 03:27:30;;;;;;;5.00;4.07;;;;;22.30;101823.00;;;;5069337;28;20191;-76
2021/08/13 03:29:57;;;;;;;6.13;3.85;;;;;22.30;101813.00;;;;5069670;28;20206;-76
2021/08/13 03:32:25;;;;;;;3.95;3.40;;;;;22.20;101811.00;;;;5069262;28;20206;-77
2021/08/13 03:34:52;;;;;;;5.15;3.05;;;;;22.20;101805.00;;;;5068655;28;20253;-77
2021/08/13 03:37:20;;;;;;;4.05;3.63;;;;;22.20;101807.00;;;;5068789;28;20583;-77
2021/08/13 03:39:47;;;;;;;4.20;3.58;;;;;22.20;101820.00;;;;5069241;28;20693;-77
2021/08/13 03:42:17;;;;;;;4.60;3.60;;;;;22.20;101820.00;;;;5058846;28;20230;-77
2021/08/13 03:44:44;;;;;;;4.72;3.95;;;;;22.20;101821.00;;;;5049310;28;20290;-77
2021/08/13 03:47:11;;;;;;;4.35;3.80;;;;;22.20;101828.00;;;;5048908;28;20784;-77
2021/08/13 03:49:38;;;;;;;5.50;3.80;;;;;22.10;101831.00;;;;5048776;28;20212;-76
2021/08/13 03:52:06;;;;;;;6.05;3.83;;;;;22.10;101831.00;;;;5048527;28;20670;-77
2021/08/13 03:54:33;;;;;;;4.93;4.03;;;;;22.10;101823.00;;;;5049067;28;20195;-77
2021/08/13 03:57:00;;;;;;;4.82;3.70;;;;;22.10;101823.00;;;;5048716;28;20299;-77
2021/08/13 03:59:29;;;;;;;5.88;3.65;;;;;22.00;101823.00;;;;5049475;28;20207;-77
2021/08/13 04:01:56;;;;;;;5.63;3.88;;;;;22.10;101822.00;;;;5049002;28;20235;-77
2021/08/13 04:04:23;;;;;;;4.63;3.60;;;;;22.00;101823.00;;;;5049205;28;20736;-77
2021/08/13 04:06:50;;;;;;;5.20;4.40;;;;;22.00;101823.00;;;;5048941;28;20223;-77
2021/08/13 04:09:17;;;;;;;5.10;3.67;;;;;22.00;101824.00;;;;5048195;28;20211;-77
2021/08/13 04:11:45;;;;;;;5.38;4.05;;;;;22.00;101829.00;;;;5048690;28;20207;-77
2021/08/13 04:14:12;;;;;;;4.95;3.88;;;;;22.00;101826.00;;;;5048096;28;20206;-77
2021/08/13 04:16:40;;;;;;;5.78;3.85;;;;;22.00;101823.00;;;;5049227;28;20238;-77
2021/08/13 04:19:08;;;;;;;5.63;4.20;;;;;22.00;101825.00;;;;5048776;28;20203;-77
2021/08/13 04:21:35;;;;;;;4.40;3.75;;;;;22.00;101823.00;;;;5048542;28;20669;-77
2021/08/13 04:24:02;;;;;;;7.13;4.00;;;;;21.90;101820.00;;;;5048477;28;20207;-77
2021/08/13 04:26:29;;;;;;;5.82;3.83;;;;;22.00;101819.00;;;;5048269;28;20223;-77
2021/08/13 04:28:56;;;;;;;6.78;4.35;;;;;21.90;101823.00;;;;5048114;28;20207;-78
2021/08/13 04:31:24;;;;;;;5.05;3.80;;;;;21.90;101817.00;;;;5048641;28;20665;-77
2021/08/13 04:33:52;;;;;;;5.55;4.20;;;;;21.90;101829.00;;;;5049245;28;20596;-77
2021/08/13 04:36:19;;;;;;;5.47;4.00;;;;;21.90;101821.00;;;;5047964;28;20232;-77
2021/08/13 04:38:47;;;;;;;5.10;4.22;;;;;21.90;101821.00;;;;5048955;28;20204;-77
2021/08/13 04:41:14;;;;;;;4.20;3.80;;;;;21.90;101824.00;;;;5048699;28;20207;-77
2021/08/13 04:43:41;;;;;;;8.05;4.60;;;;;21.90;101822.00;;;;5048738;28;20200;-77
2021/08/13 04:46:08;;;;;;;6.00;4.57;;;;;21.90;101826.00;;;;5047988;28;20548;-77
2021/08/13 04:48:35;;;;;;;5.65;4.22;;;;;21.90;101828.00;;;;5048443;28;20192;-77
2021/08/13 04:51:04;;;;;;;6.03;4.78;;;;;21.90;101829.00;;;;5048804;28;20199;-77
2021/08/13 04:53:32;;;;;;;4.95;3.67;;;;;22.00;101827.00;;;;5048633;28;20203;-77
2021/08/13 04:55:59;;;;;;;5.25;4.35;;;;;22.00;101830.00;;;;5047912;28;20203;-77
2021/08/13 04:58:26;;;;;;;4.93;4.18;;;;;22.00;101831.00;;;;5048594;28;20207;-77
2021/08/13 05:00:56;;;;;;;5.80;4.97;;;;;22.00;101829.00;;;;5047762;28;20662;-77
2021/08/13 05:03:23;;;;;;;6.50;4.32;;;;;22.00;101838.00;;;;5048379;28;20250;-77
2021/08/13 05:05:50;;;;;;;6.93;5.00;;;;;22.00;101834.00;;;;5048464;28;20220;-77
2021/08/13 05:08:19;;;;;;;8.95;5.32;;;;;22.00;101835.00;;;;5059409;28;20203;-77
2021/08/13 05:10:46;;;;;;;6.47;4.95;;;;;22.00;101830.00;;;;5068491;28;20538;-74
2021/08/13 05:13:13;;;;;;;7.18;5.45;;;;;22.10;101834.00;;;;5068118;28;20683;-74
2021/08/13 05:15:41;;;;;;;6.47;5.00;;;;;22.10;101839.00;;;;5068598;28;20199;-74
2021/08/13 05:18:08;;;;;;;6.43;5.60;;;;;22.10;101833.00;;;;5068185;28;20571;-75
2021/08/13 05:20:35;;;;;;;6.68;5.47;;;;;22.20;101839.00;;;;5068049;28;20203;-74
2021/08/13 05:23:02;;;;;;;8.85;5.50;;;;;22.20;101846.00;;;;5067101;28;20207;-74
2021/08/13 05:25:31;;;;;;;7.47;6.07;;;;;22.20;101838.00;;;;5050702;28;20204;-74
2021/08/13 05:27:58;;;;;;;7.00;5.85;;;;;22.30;101850.00;;;;5050825;28;20674;-74
2021/08/13 05:30:26;;;;;;;8.40;5.28;;;;;22.40;101855.00;;;;5050885;28;20200;-74
2021/08/13 05:32:53;;;;;;;7.95;4.57;;;;;22.40;101853.00;;;;5051125;28;20206;-75
2021/08/13 05:35:20;;;;;;;8.38;6.07;;;;;22.50;101851.00;;;;5050477;28;20231;-74
2021/08/13 05:37:48;;;;;;;8.55;6.15;;;;;22.60;101852.00;;;;5050693;28;20212;-74
2021/08/13 05:40:15;;;;;;;9.45;5.72;;;;;22.60;101854.00;;;;5051520;28;20211;-74
2021/08/13 05:42:44;;;;;;;8.40;5.82;;;;;22.70;101855.00;;;;5051392;28;20562;-74
2021/08/13 05:45:12;;;;;;;7.88;5.18;;;;;22.80;101852.00;;;;5066615;28;20584;-74
2021/08/13 05:47:39;;;;;;;11.88;5.35;;;;;22.80;101855.00;;;;5070638;28;20227;-74
2021/08/13 05:50:08;;;;;;;6.80;5.03;;;;;22.90;101841.00;;;;5070402;28;20210;-74
2021/08/13 05:52:36;;;;;;;9.23;6.28;;;;;22.90;101838.00;;;;5070963;28;20533;-74
2021/08/13 05:55:03;;;;;;;7.05;4.57;;;;;23.00;101832.00;;;;5070262;28;20202;-74
2021/08/13 05:57:30;;;;;;;6.25;4.88;;;;;23.00;101840.00;;;;5065812;28;20219;-75
2021/08/13 05:59:59;;;;;;;7.78;5.30;;;;;23.10;101834.00;;;;5050315;28;20619;-74
2021/08/13 06:02:26;;;;;;;7.68;5.57;;;;;23.10;101836.00;;;;5050123;28;20206;-75
2021/08/13 06:04:56;;;;;;;7.13;5.10;;;;;23.20;101837.00;;;;5050405;28;20219;-75
2021/08/13 06:07:23;;;;;;;6.32;4.90;;;;;23.20;101837.00;;;;5049898;28;20273;-75
2021/08/13 06:09:50;;;;;;;6.63;4.95;;;;;23.30;101835.00;;;;5050385;28;20191;-75
2021/08/13 06:12:18;;;;;;;6.05;5.20;;;;;23.30;101852.00;;;;5049796;28;20314;-76
2021/08/13 06:14:45;;;;;;;5.95;5.18;;;;;23.40;101851.00;;;;5056168;28;20207;-76
2021/08/13 06:17:13;;;;;;;8.27;5.75;;;;;23.40;101842.00;;;;5069944;28;20274;-75
2021/08/13 06:19:41;;;;;;;8.30;6.10;;;;;23.40;101847.00;;;;5070247;28;20631;-75
2021/08/13 06:22:08;;;;;;;7.43;4.90;;;;;23.50;101845.00;;;;5069068;28;20200;-77
2021/08/13 06:24:35;;;;;;;7.60;5.45;;;;;23.50;101860.00;;;;5070144;28;20672;-75
2021/08/13 06:27:02;;;;;;;8.02;5.57;;;;;23.50;101861.00;;;;5069803;28;20237;-75
2021/08/13 06:29:30;;;;;;;7.95;5.18;;;;;23.60;101858.00;;;;5069873;28;20374;-75
2021/08/13 06:31:57;;;;;;;7.60;5.55;;;;;23.60;101858.00;;;;5069036;28;20650;-75
2021/08/13 06:34:25;;;;;;;8.50;5.90;;;;;23.60;101856.00;;;;5069646;28;20211;-76
2021/08/13 06:36:53;;;;;;;7.68;5.72;;;;;23.70;101858.00;;;;5068987;28;20223;-75
2021/08/13 06:39:20;;;;;;;7.60;5.05;;;;;23.70;101859.00;;;;5070068;28;20194;-75
2021/08/13 06:41:47;;;;;;;9.70;5.70;;;;;23.80;101862.00;;;;5069377;28;20202;-75
2021/08/13 06:44:15;;;;;;;9.48;5.38;;;;;23.80;101864.00;;;;5069725;28;20210;-75
2021/08/13 06:46:43;;;;;;;9.05;5.85;;;;;23.80;101862.00;;;;5069571;28;20368;-75
2021/08/13 06:49:10;;;;;;;8.18;5.70;;;;;23.90;101863.00;;;;5059381;28;20567;-76
2021/08/13 06:51:38;;;;;;;7.90;5.20;;;;;23.90;101864.00;;;;5049928;28;20208;-75
2021/08/13 06:54:06;;;;;;;9.27;4.95;;;;;24.00;101862.00;;;;5048418;28;20203;-76
2021/08/13 06:56:33;;;;;;;8.82;5.63;;;;;24.00;101860.00;;;;5049885;28;20211;-75
2021/08/13 06:59:00;;;;;;;6.90;4.90;;;;;24.10;101869.00;;;;5049028;28;20200;-75
2021/08/13 07:01:27;;;;;;;7.20;5.30;;;;;24.10;101873.00;;;;5049212;28;20215;-75
2021/08/13 07:03:55;;;;;;;7.18;4.85;;;;;24.20;101884.00;;;;5048849;28;20601;-77
2021/08/13 07:06:22;;;;;;;10.13;5.25;;;;;24.30;101895.00;;;;5049623;28;20230;-75
2021/08/13 07:08:51;;;;;;;7.43;4.80;;;;;24.30;101903.00;;;;5048957;28;20204;-75
2021/08/13 07:11:18;;;;;;;6.70;4.90;;;;;24.40;101913.00;;;;5048490;28;20207;-75
2021/08/13 07:13:45;;;;;;;9.20;5.00;;;;;24.40;101914.00;;;;5049552;28;20219;-75
2021/08/13 07:16:12;;;;;;;6.10;4.13;;;;;24.40;101907.00;;;;5048537;28;20290;-75
2021/08/13 07:18:39;;;;;;;5.35;4.07;;;;;24.50;101912.00;;;;5048596;28;20207;-76
2021/08/13 07:21:07;;;;;;;6.60;4.40;;;;;24.50;101909.00;;;;5049154;28;20199;-75
2021/08/13 07:23:34;;;;;;;6.15;4.30;;;;;24.60;101915.00;;;;5049696;28;20207;-75
2021/08/13 07:26:02;;;;;;;5.03;3.83;;;;;24.60;101914.00;;;;5048088;28;20203;-75
2021/08/13 07:28:30;;;;;;;4.80;3.30;;;;;24.60;101911.00;;;;5048746;28;20196;-76
2021/08/13 07:30:57;;;;;;;6.80;4.10;;;;;24.70;101921.00;;;;5047869;28;20662;-76
2021/08/13 07:33:24;;;;;;;5.07;3.50;;;;;24.80;101912.00;;;;5048762;28;20202;-76
2021/08/13 07:35:51;;;;;;;5.97;3.47;;;;;24.80;101912.00;;;;5048351;28;20242;-77
2021/08/13 07:38:18;;;;;;;5.75;3.30;;;;;24.90;101908.00;;;;5048325;28;20211;-76
2021/08/13 07:40:46;;;;;;;8.10;4.90;;;;;24.90;101917.00;;;;5049198;28;20230;-75
2021/08/13 07:43:15;;;;;;;7.22;3.80;;;;;24.90;101923.00;;;;5048459;28;20210;-76
2021/08/13 07:45:42;;;;;;;5.40;4.10;;;;;24.90;101915.00;;;;5048533;28;20238;-76
2021/08/13 07:48:10;;;;;;;6.75;4.07;;;;;24.90;101912.00;;;;5048353;28;20231;-76
2021/08/13 07:50:37;;;;;;;8.00;4.25;;;;;25.00;101907.00;;;;5048304;28;20215;-76
2021/08/13 07:53:04;;;;;;;4.57;3.80;;;;;25.00;101933.00;;;;5048091;28;20203;-75
2021/08/13 07:55:31;;;;;;;6.50;4.13;;;;;25.00;101939.00;;;;5047961;28;20214;-76
2021/08/13 07:57:58;;;;;;;6.95;5.10;;;;;25.10;101944.00;;;;5063949;28;20207;-76
2021/08/13 08:00:27;;;;;;;6.35;4.78;;;;;25.10;101949.00;;;;5069184;28;20191;-76
2021/08/13 08:02:54;;;;;;;6.50;4.50;;;;;25.20;101950.00;;;;5068882;28;20203;-76
2021/08/13 08:05:21;;;;;;;7.13;4.55;;;;;25.30;101943.00;;;;5068621;28;20207;-76
2021/08/13 08:07:49;;;;;;;6.90;5.10;;;;;25.30;101946.00;;;;5068811;28;20234;-76
2021/08/13 08:10:16;;;;;;;6.53;4.70;;;;;25.30;101940.00;;;;5068761;28;20210;-76
2021/08/13 08:12:44;;;;;;;6.13;4.32;;;;;25.40;101941.00;;;;5069142;28;20210;-76
2021/08/13 08:15:11;;;;;;;7.50;3.92;;;;;25.40;101944.00;;;;5067764;28;20207;-76
2021/08/13 08:17:40;;;;;;;5.43;4.10;;;;;25.50;101948.00;;;;5068675;28;20588;-76
2021/08/13 08:20:09;;;;;;;5.15;4.13;;;;;25.60;101973.00;;;;5068666;28;20206;-76
2021/08/13 08:22:37;;;;;;;6.50;4.03;;;;;25.60;101983.00;;;;5068715;28;20199;-76
2021/08/13 08:25:05;;;;;;;5.25;4.25;;;;;25.70;101978.00;;;;5068675;28;20191;-75
2021/08/13 08:27:32;;;;;;;5.28;4.30;;;;;25.70;101953.00;;;;5067404;28;20232;-76
2021/08/13 08:29:59;;;;;;;6.93;4.00;;;;;25.70;101938.00;;;;5067925;28;20195;-76
2021/08/13 08:32:26;;;;;;;6.80;4.47;;;;;25.80;101936.00;;;;5048170;28;20229;-75
2021/08/13 08:34:55;;;;;;;6.15;3.97;;;;;25.80;101941.00;;;;5047407;28;20246;-75
2021/08/13 08:37:22;;;;;;;4.50;3.85;;;;;25.90;101950.00;;;;5048229;28;20220;-76
2021/08/13 08:39:50;;;;;;;5.97;3.97;;;;;26.00;101944.00;;;;5047892;28;20199;-76
2021/08/13 08:42:19;;;;;;;5.95;4.03;;;;;26.10;101959.00;;;;5047800;28;20196;-75
2021/08/13 08:44:46;;;;;;;5.18;4.10;;;;;26.10;101960.00;;;;5059497;28;20195;-77
2021/08/13 08:47:15;;;;;;;5.03;4.07;;;;;26.20;101969.00;;;;5048744;28;20220;-76
2021/08/13 08:49:44;;;;;;;4.35;3.47;;;;;26.30;101968.00;;;;5047277;28;20207;-75
2021/08/13 08:52:13;;;;;;;6.25;3.90;;;;;26.40;101962.00;;;;5047804;28;20188;-76
2021/08/13 08:54:43;;;;;;;8.55;4.15;;;;;26.50;101966.00;;;;5048444;28;20207;-76
2021/08/13 08:57:11;;;;;;;4.10;3.35;;;;;26.60;101960.00;;;;5047437;28;20230;-76
2021/08/13 08:59:39;;;;;;;6.07;3.72;;;;;26.70;101966.00;;;;5049932;28;20200;-75
2021/08/13 09:02:07;;;;;;;4.85;3.40;;;;;26.80;101968.00;;;;5052111;28;20196;-75
2021/08/13 09:04:34;;;;;;;7.80;2.88;;;;;26.90;101976.00;;;;5052915;28;20199;-76
2021/08/13 09:07:01;;;;;;;3.75;3.20;;;;;27.10;101975.00;;;;5051716;28;20219;-77
2021/08/13 09:09:30;;;;;;;4.13;2.90;;;;;27.10;101976.00;;;;5052108;28;20195;-76
2021/08/13 09:11:58;;;;;;;6.00;3.28;;;;;27.30;101975.00;;;;5051656;28;20207;-76
2021/08/13 09:14:38;;;;;;;6.07;2.90;;;;;27.30;101992.00;;;;5052051;28;20294;-76
2021/08/13 09:17:06;;;;;;;5.40;3.03;;;;;27.60;101992.00;;;;5051910;28;20245;-77
2021/08/13 09:19:44;;;;;;;4.85;3.03;;;;;27.60;101993.00;;;;5051878;28;20204;-76
2021/08/13 09:22:14;;;;;;;3.38;2.35;;;;;27.70;102001.00;;;;5051442;28;20678;-77
2021/08/13 09:24:44;;;;;;;3.08;2.20;;;;;27.70;101995.00;;;;5052189;28;20255;-76
2021/08/13 09:27:26;;;;;;;3.42;2.20;;;;;27.80;102006.00;;;;5051022;28;20227;-76
2021/08/13 09:30:12;;;;;;;3.30;1.77;;;;;27.90;102004.00;;;;5051806;28;20203;-76
2021/08/13 09:32:39;;;;;;;3.58;2.05;;;;;28.10;102003.00;;;;5051268;28;20204;-76
2021/08/13 09:35:08;;;;;;;3.17;1.95;;;;;28.20;102005.00;;;;5051270;28;20233;-77
2021/08/13 09:37:37;;;;;;;5.85;2.17;;;;;28.20;102020.00;;;;5051333;28;20203;-76
2021/08/13 09:40:08;;;;;;;3.13;1.90;;;;;28.20;102024.00;;;;5051569;28;20682;-77
2021/08/13 09:42:37;;;;;;;6.05;2.50;;;;;28.20;102015.00;;;;5051087;28;20211;-76
2021/08/13 09:45:07;;;;;;;3.70;2.08;;;;;28.10;102013.00;;;;5056818;28;20201;-77
2021/08/13 09:47:43;;;;;;;3.90;2.45;;;;;28.10;102013.00;;;;5066061;28;20231;-76
2021/08/13 09:50:11;;;;;;;7.00;2.40;;;;;28.10;102011.00;;;;5051215;28;20202;-76
2021/08/13 09:52:39;;;;;;;4.93;2.20;;;;;28.10;102009.00;;;;5050930;28;20291;-78
2021/08/13 09:55:11;;;;;;;3.83;2.08;;;;;28.00;102033.00;;;;5051498;28;20199;-77
2021/08/13 09:57:43;;;;;;;3.70;2.80;;;;;28.00;102024.00;;;;5051070;28;20203;-77
2021/08/13 10:00:12;;;;;;;3.38;2.15;;;;;28.10;102018.00;;;;5051155;28;20207;-76
2021/08/13 10:02:40;;;;;;;2.13;1.67;;;;;28.10;102023.00;;;;5051178;28;20222;-75
2021/08/13 10:05:21;;;;;;;3.80;2.10;;;;;28.10;102025.00;;;;5050623;28;20200;-76
2021/08/13 10:07:49;;;;;;;4.03;2.10;;;;;28.20;102017.00;;;;5055751;28;20593;-77
2021/08/13 10:10:23;;;;;;;3.10;2.08;;;;;28.30;102024.00;;;;5070706;28;20221;-76
2021/08/13 10:12:51;;;;;;;2.42;1.80;;;;;28.30;102037.00;;;;5069279;28;20573;-76
2021/08/13 10:15:29;;;;;;;3.72;2.10;;;;;28.30;102038.00;;;;5070946;28;20739;-76
2021/08/13 10:17:57;;;;;;;2.53;1.73;;;;;28.50;102044.00;;;;5070323;28;20473;-76
2021/08/13 10:20:25;;;;;;;3.08;1.88;;;;;28.60;102031.00;;;;5070755;28;20226;-76
2021/08/13 10:22:53;;;;;;;3.92;1.95;;;;;28.70;102028.00;;;;5070301;28;20226;-76
2021/08/13 10:25:24;;;;;;;3.42;1.50;;;;;28.90;102041.00;;;;5070821;28;20645;-76
2021/08/13 10:27:53;;;;;;;4.50;2.05;;;;;29.10;102053.00;;;;5069774;28;20222;-76
2021/08/13 10:30:21;;;;;;;2.63;1.90;;;;;29.10;102042.00;;;;5069709;28;20256;-75
2021/08/13 10:32:52;;;;;;;2.38;2.13;;;;;29.20;102038.00;;;;5070592;28;20195;-76
2021/08/13 10:35:19;;;;;;;3.53;1.88;;;;;29.20;102028.00;;;;5070395;28;20238;-76
2021/08/13 10:37:47;;;;;;;2.88;2.22;;;;;29.30;102044.00;;;;5070492;28;20218;-76
2021/08/13 10:40:15;;;;;;;3.63;1.95;;;;;29.30;102037.00;;;;5069950;28;20206;-76
2021/08/13 10:42:46;;;;;;;4.00;2.40;;;;;29.40;102047.00;;;;5070561;28;20210;-76
2021/08/13 10:45:21;;;;;;;3.83;1.63;;;;;29.40;102036.00;;;;5063008;28;20203;-75
2021/08/13 10:48:01;;;;;;;3.20;1.60;;;;;29.40;102034.00;;;;5050651;28;20235;-75
2021/08/13 10:50:29;;;;;;;4.20;2.15;;;;;29.40;102039.00;;;;5049977;28;20207;-77
2021/08/13 10:52:56;;;;;;;2.22;1.60;;;;;29.40;102030.00;;;;5049762;28;20214;-76
2021/08/13 10:55:47;;;;;;;2.88;1.60;;;;;29.30;102045.00;;;;5050234;28;20203;-77
2021/08/13 10:58:43;;;;;;;3.00;1.90;;;;;29.30;102043.00;;;;5049985;28;20281;-76
2021/08/13 11:01:12;;;;;;;2.47;1.80;;;;;29.30;102041.00;;;;5049918;28;20207;-75
2021/08/13 11:03:40;;;;;;;4.28;1.67;;;;;29.30;102041.00;;;;5050350;28;20219;-76
2021/08/13 11:06:09;;;;;;;4.60;1.90;;;;;29.30;102040.00;;;;5049878;28;20256;-76
2021/08/13 11:08:56;;;;;;;4.22;1.50;;;;;29.10;102046.00;;;;5049492;28;20226;-76
2021/08/13 11:11:23;;;;;;;2.63;1.75;;;;;29.20;102038.00;;;;5049802;28;20204;-75
2021/08/13 11:13:52;;;;;;;4.03;1.83;;;;;29.10;102058.00;;;;5049857;28;20206;-76
2021/08/13 11:16:35;;;;;;;1.85;1.17;;;;;29.00;102056.00;;;;5050222;28;20199;-75
2021/08/13 11:19:06;;;;;;;1.50;1.40;;;;;29.10;102054.00;;;;5049240;28;20199;-77
2021/08/13 11:21:35;;;;;;;2.95;1.33;;;;;29.00;102053.00;;;;5049960;28;20196;-76
2021/08/13 11:24:04;;;;;;;2.60;1.30;;;;;29.00;102055.00;;;;5049411;28;20206;-76
2021/08/13 11:27:09;;;;;;;2.70;1.20;;;;;28.80;102044.00;;;;5049208;28;20218;-77
2021/08/13 11:29:42;;;;;;;3.53;1.77;;;;;28.90;102055.00;;;;5049341;28;20203;-76
2021/08/13 11:32:25;;;;;;;2.30;1.08;;;;;28.70;102045.00;;;;5049299;28;20657;-77
2021/08/13 11:34:55;;;;;;;4.50;1.70;;;;;28.80;102050.00;;;;5048252;28;20689;-76
2021/08/13 11:37:47;;;;;;;2.35;1.30;;;;;28.60;102051.00;;;;5049730;28;20264;-76
2021/08/13 11:40:45;;;;;;;2.53;1.58;;;;;28.50;102049.00;;;;5049396;28;20215;-76
2021/08/13 11:43:13;;;;;;;2.67;1.08;;;;;28.60;102057.00;;;;5049275;28;20207;-76
2021/08/13 11:45:43;;;;;;;2.25;0.80;;;;;28.60;102055.00;;;;5053279;28;20278;-77
2021/08/13 11:48:12;;;;;;;3.75;0.95;;;;;28.50;102060.00;;;;5069134;28;20222;-76
2021/08/13 11:50:39;;;;;;;2.53;1.20;;;;;28.50;102058.00;;;;5068658;28;20214;-76
2021/08/13 11:53:07;;;;;;;2.13;1.42;;;;;28.40;102056.00;;;;5068926;28;20203;-76
2021/08/13 11:55:36;;;;;;;2.40;0.90;;;;;28.40;102058.00;;;;5056201;28;20200;-76
2021/08/13 11:58:05;;;;;;;4.72;1.65;;;;;28.30;102058.00;;;;5048425;28;20211;-76
2021/08/13 12:00:34;;;;;;;1.80;0.90;;;;;28.30;102047.00;;;;5048819;28;20700;-76
2021/08/13 12:03:04;;;;;;;4.15;1.02;;;;;28.30;102042.00;;;;5048915;28;20200;-75
2021/08/13 12:05:32;;;;;;;3.38;1.05;;;;;28.20;102047.00;;;;5048818;28;20203;-76
2021/08/13 12:08:01;;;;;;;3.97;1.05;;;;;28.20;102055.00;;;;5048767;28;20223;-77
2021/08/13 12:10:30;;;;;;;5.18;1.48;;;;;28.20;102057.00;;;;5048431;28;20203;-76
2021/08/13 12:12:58;;;;;;;3.20;1.00;;;;;28.10;102059.00;;;;5048824;28;20204;-77
2021/08/13 12:15:30;;;;;;;3.38;1.13;;;;;28.00;102068.00;;;;5049070;28;20226;-76
2021/08/13 12:17:59;;;;;;;3.80;1.08;;;;;28.10;102057.00;;;;5048431;28;20203;-76